sensor_id;sensor_type;location;lat;lon;timestamp;temperature;humidity
296;DHT22;132;48.770;9.200;2022-12-18T00:00:15;-6.50;1.00
296;DHT22;132;48.770;9.200;2022-12-18T00:03:01;-6.50;1.00
296;DHT22;132;48.770;9.200;2022-12-18T00:05:50;-6.60;1.00
296;DHT22;132;48.770;9.200;2022-12-18T00:08:41;-6.60;1.00
296;DHT22;132;48.770;9.200;2022-12-18T00:11:30;-6.70;1.00
296;DHT22;132;48.770;9.200;2022-12-18T00:14:17;-6.60;1.00
296;DHT22;132;48.770;9.200;2022-12-18T00:17:03;-6.60;1.00
296;DHT22;132;48.770;9.200;2022-12-18T00:19:50;-6.50;1.00
296;DHT22;132;48.770;9.200;2022-12-18T00:22:37;-5.80;1.00
296;DHT22;132;48.770;9.200;2022-12-18T00:25:24;-6.50;1.00
296;DHT22;132;48.770;9.200;2022-12-18T00:28:10;-6.50;1.00
296;DHT22;132;48.770;9.200;2022-12-18T00:31:08;-6.40;1.00
296;DHT22;132;48.770;9.200;2022-12-18T00:33:56;-6.30;1.00
296;DHT22;132;48.770;9.200;2022-12-18T00:36:43;-6.30;1.00
296;DHT22;132;48.770;9.200;2022-12-18T00:39:29;-6.30;1.00
296;DHT22;132;48.770;9.200;2022-12-18T00:42:16;-6.30;1.00
296;DHT22;132;48.770;9.200;2022-12-18T00:45:26;-6.20;1.00
296;DHT22;132;48.770;9.200;2022-12-18T00:48:13;-6.20;1.00
296;DHT22;132;48.770;9.200;2022-12-18T00:50:59;-6.20;1.00
296;DHT22;132;48.770;9.200;2022-12-18T00:53:46;-6.20;1.00
296;DHT22;132;48.770;9.200;2022-12-18T00:56:34;-6.20;1.00
296;DHT22;132;48.770;9.200;2022-12-18T00:59:21;-6.20;1.00
296;DHT22;132;48.770;9.200;2022-12-18T01:02:08;-6.20;1.00
296;DHT22;132;48.770;9.200;2022-12-18T01:04:55;-6.20;1.00
296;DHT22;132;48.770;9.200;2022-12-18T01:07:41;-6.10;1.00
296;DHT22;132;48.770;9.200;2022-12-18T01:10:28;-6.20;1.00
296;DHT22;132;48.770;9.200;2022-12-18T01:13:17;-6.10;1.00
296;DHT22;132;48.770;9.200;2022-12-18T01:16:04;-6.10;1.00
296;DHT22;132;48.770;9.200;2022-12-18T01:18:52;-6.20;1.00
296;DHT22;132;48.770;9.200;2022-12-18T01:21:39;-6.10;1.00
296;DHT22;132;48.770;9.200;2022-12-18T01:24:26;-6.10;1.00
296;DHT22;132;48.770;9.200;2022-12-18T01:27:13;-6.10;1.00
296;DHT22;132;48.770;9.200;2022-12-18T01:30:00;-6.10;1.00
296;DHT22;132;48.770;9.200;2022-12-18T01:32:47;-6.20;1.00
296;DHT22;132;48.770;9.200;2022-12-18T01:35:40;-6.10;1.00
296;DHT22;132;48.770;9.200;2022-12-18T01:38:28;-6.20;1.00
296;DHT22;132;48.770;9.200;2022-12-18T01:41:17;-6.20;1.00
296;DHT22;132;48.770;9.200;2022-12-18T01:47:52;-6.20;1.00
296;DHT22;132;48.770;9.200;2022-12-18T01:50:41;-6.20;1.00
296;DHT22;132;48.770;9.200;2022-12-18T01:53:30;-6.30;1.00
296;DHT22;132;48.770;9.200;2022-12-18T01:56:19;-6.20;1.00
296;DHT22;132;48.770;9.200;2022-12-18T01:59:10;-6.10;1.00
296;DHT22;132;48.770;9.200;2022-12-18T02:01:57;-6.10;1.00
296;DHT22;132;48.770;9.200;2022-12-18T02:04:44;-6.20;1.00
296;DHT22;132;48.770;9.200;2022-12-18T02:08:10;-6.20;1.00
296;DHT22;132;48.770;9.200;2022-12-18T02:15:02;-6.10;1.00
296;DHT22;132;48.770;9.200;2022-12-18T02:17:55;-6.10;1.00
296;DHT22;132;48.770;9.200;2022-12-18T02:27:05;-6.00;1.00
296;DHT22;132;48.770;9.200;2022-12-18T02:29:55;-6.00;1.00
296;DHT22;132;48.770;9.200;2022-12-18T02:32:49;-6.00;1.00
296;DHT22;132;48.770;9.200;2022-12-18T02:35:38;-6.00;1.00
296;DHT22;132;48.770;9.200;2022-12-18T02:38:29;-6.00;1.00
296;DHT22;132;48.770;9.200;2022-12-18T02:41:21;-6.00;1.00
296;DHT22;132;48.770;9.200;2022-12-18T02:44:13;-5.90;1.00
296;DHT22;132;48.770;9.200;2022-12-18T02:47:01;-5.90;1.00
296;DHT22;132;48.770;9.200;2022-12-18T02:50:02;-6.00;1.00
296;DHT22;132;48.770;9.200;2022-12-18T02:56:12;-6.00;1.00
296;DHT22;132;48.770;9.200;2022-12-18T02:59:06;-6.10;1.00
296;DHT22;132;48.770;9.200;2022-12-18T03:06:00;-6.00;1.00
296;DHT22;132;48.770;9.200;2022-12-18T03:08:43;-6.00;1.00
296;DHT22;132;48.770;9.200;2022-12-18T03:11:33;-6.00;1.00
296;DHT22;132;48.770;9.200;2022-12-18T03:14:40;-5.90;1.00
296;DHT22;132;48.770;9.200;2022-12-18T03:17:32;-6.00;1.00
296;DHT22;132;48.770;9.200;2022-12-18T03:20:21;-6.00;1.00
296;DHT22;132;48.770;9.200;2022-12-18T03:23:14;-6.00;1.00
296;DHT22;132;48.770;9.200;2022-12-18T03:26:10;-6.00;1.00
296;DHT22;132;48.770;9.200;2022-12-18T03:29:09;-6.10;1.00
296;DHT22;132;48.770;9.200;2022-12-18T03:32:04;-6.10;1.00
296;DHT22;132;48.770;9.200;2022-12-18T03:34:53;-6.10;1.00
296;DHT22;132;48.770;9.200;2022-12-18T03:37:43;-6.20;1.00
296;DHT22;132;48.770;9.200;2022-12-18T03:43:34;-6.30;1.00
296;DHT22;132;48.770;9.200;2022-12-18T03:49:25;-6.40;1.00
296;DHT22;132;48.770;9.200;2022-12-18T03:52:22;-6.50;1.00
296;DHT22;132;48.770;9.200;2022-12-18T03:55:11;-6.60;1.00
296;DHT22;132;48.770;9.200;2022-12-18T03:58:01;-6.60;1.00
296;DHT22;132;48.770;9.200;2022-12-18T04:01:02;-6.60;1.00
296;DHT22;132;48.770;9.200;2022-12-18T04:03:50;-6.60;1.00
296;DHT22;132;48.770;9.200;2022-12-18T04:06:41;-6.70;1.00
296;DHT22;132;48.770;9.200;2022-12-18T04:09:32;-6.70;1.00
296;DHT22;132;48.770;9.200;2022-12-18T04:12:20;-6.70;1.00
296;DHT22;132;48.770;9.200;2022-12-18T04:15:09;-6.70;1.00
296;DHT22;132;48.770;9.200;2022-12-18T04:17:56;-6.70;1.00
296;DHT22;132;48.770;9.200;2022-12-18T04:20:48;-5.90;1.00
296;DHT22;132;48.770;9.200;2022-12-18T04:23:35;-6.90;1.00
296;DHT22;132;48.770;9.200;2022-12-18T04:26:22;-6.90;1.00
296;DHT22;132;48.770;9.200;2022-12-18T04:29:23;-6.90;1.00
296;DHT22;132;48.770;9.200;2022-12-18T04:32:10;-6.90;1.00
296;DHT22;132;48.770;9.200;2022-12-18T04:34:57;-7.00;1.00
296;DHT22;132;48.770;9.200;2022-12-18T04:37:44;-7.00;1.00
296;DHT22;132;48.770;9.200;2022-12-18T04:40:31;-7.10;1.00
296;DHT22;132;48.770;9.200;2022-12-18T04:43:18;-7.20;1.00
296;DHT22;132;48.770;9.200;2022-12-18T04:46:08;-7.10;1.00
296;DHT22;132;48.770;9.200;2022-12-18T04:48:54;-7.50;1.00
296;DHT22;132;48.770;9.200;2022-12-18T04:51:43;-7.20;1.00
296;DHT22;132;48.770;9.200;2022-12-18T05:00:04;-7.40;1.00
296;DHT22;132;48.770;9.200;2022-12-18T05:02:52;-7.40;1.00
296;DHT22;132;48.770;9.200;2022-12-18T05:05:39;-7.40;1.00
296;DHT22;132;48.770;9.200;2022-12-18T05:08:25;-7.50;1.00
296;DHT22;132;48.770;9.200;2022-12-18T05:11:14;-7.50;1.00
296;DHT22;132;48.770;9.200;2022-12-18T05:14:04;-7.60;1.00
296;DHT22;132;48.770;9.200;2022-12-18T05:16:50;-7.60;1.00
296;DHT22;132;48.770;9.200;2022-12-18T05:19:37;-7.60;1.00
296;DHT22;132;48.770;9.200;2022-12-18T05:37:19;-7.70;1.00
296;DHT22;132;48.770;9.200;2022-12-18T05:40:07;-7.70;1.00
296;DHT22;132;48.770;9.200;2022-12-18T05:42:54;-7.70;1.00
296;DHT22;132;48.770;9.200;2022-12-18T05:45:41;-7.80;1.00
296;DHT22;132;48.770;9.200;2022-12-18T05:48:53;-7.80;1.00
296;DHT22;132;48.770;9.200;2022-12-18T05:51:40;-7.90;1.00
296;DHT22;132;48.770;9.200;2022-12-18T05:54:28;-8.00;1.00
296;DHT22;132;48.770;9.200;2022-12-18T05:57:19;-8.00;1.00
296;DHT22;132;48.770;9.200;2022-12-18T06:02:56;-8.00;1.00
296;DHT22;132;48.770;9.200;2022-12-18T06:05:44;-8.00;1.00
296;DHT22;132;48.770;9.200;2022-12-18T06:08:32;-8.10;1.00
296;DHT22;132;48.770;9.200;2022-12-18T06:11:22;-8.20;1.00
296;DHT22;132;48.770;9.200;2022-12-18T06:14:17;-8.20;1.00
296;DHT22;132;48.770;9.200;2022-12-18T06:17:04;-8.20;1.00
296;DHT22;132;48.770;9.200;2022-12-18T06:19:59;-8.30;1.00
296;DHT22;132;48.770;9.200;2022-12-18T06:25:38;-8.10;1.00
296;DHT22;132;48.770;9.200;2022-12-18T06:28:25;-8.20;1.00
296;DHT22;132;48.770;9.200;2022-12-18T06:31:12;-8.10;1.00
296;DHT22;132;48.770;9.200;2022-12-18T06:36:51;-8.10;1.00
296;DHT22;132;48.770;9.200;2022-12-18T06:39:38;-8.20;1.00
296;DHT22;132;48.770;9.200;2022-12-18T06:42:33;-8.20;1.00
296;DHT22;132;48.770;9.200;2022-12-18T06:45:20;-8.30;1.00
296;DHT22;132;48.770;9.200;2022-12-18T06:51:04;-8.10;1.00
296;DHT22;132;48.770;9.200;2022-12-18T06:53:51;-8.20;1.00
296;DHT22;132;48.770;9.200;2022-12-18T06:56:38;-8.20;1.00
296;DHT22;132;48.770;9.200;2022-12-18T06:59:25;-8.20;1.00
296;DHT22;132;48.770;9.200;2022-12-18T07:02:12;-8.20;1.00
296;DHT22;132;48.770;9.200;2022-12-18T07:19:19;-8.50;1.00
296;DHT22;132;48.770;9.200;2022-12-18T07:31:11;-7.70;1.00
296;DHT22;132;48.770;9.200;2022-12-18T07:36:53;-7.70;1.00
296;DHT22;132;48.770;9.200;2022-12-18T07:42:36;-7.60;1.00
296;DHT22;132;48.770;9.200;2022-12-18T07:59:29;-7.20;1.00
296;DHT22;132;48.770;9.200;2022-12-18T08:05:12;-7.30;1.00
296;DHT22;132;48.770;9.200;2022-12-18T08:08:00;-7.40;1.00
296;DHT22;132;48.770;9.200;2022-12-18T08:10:47;-7.30;1.00
296;DHT22;132;48.770;9.200;2022-12-18T08:16:27;-7.20;1.00
296;DHT22;132;48.770;9.200;2022-12-18T08:25:13;-7.10;1.00
296;DHT22;132;48.770;9.200;2022-12-18T08:36:48;-6.90;1.00
296;DHT22;132;48.770;9.200;2022-12-18T08:42:55;-6.80;1.00
296;DHT22;132;48.770;9.200;2022-12-18T09:01:53;-6.60;1.00
296;DHT22;132;48.770;9.200;2022-12-18T09:07:36;-6.40;1.00
296;DHT22;132;48.770;9.200;2022-12-18T09:10:24;-6.50;1.00
296;DHT22;132;48.770;9.200;2022-12-18T09:13:12;-6.50;1.00
296;DHT22;132;48.770;9.200;2022-12-18T09:16:03;-6.40;1.00
296;DHT22;132;48.770;9.200;2022-12-18T09:18:50;-6.30;1.00
296;DHT22;132;48.770;9.200;2022-12-18T09:21:38;-6.20;1.00
296;DHT22;132;48.770;9.200;2022-12-18T09:24:25;-6.20;1.00
296;DHT22;132;48.770;9.200;2022-12-18T09:27:11;-6.10;1.00
296;DHT22;132;48.770;9.200;2022-12-18T09:29:58;-6.00;1.00
296;DHT22;132;48.770;9.200;2022-12-18T09:32:45;-5.90;1.00
296;DHT22;132;48.770;9.200;2022-12-18T09:35:32;-5.90;1.00
296;DHT22;132;48.770;9.200;2022-12-18T09:38:19;-5.80;1.00
296;DHT22;132;48.770;9.200;2022-12-18T09:44:19;-5.70;1.00
296;DHT22;132;48.770;9.200;2022-12-18T09:50:34;-5.40;1.00
296;DHT22;132;48.770;9.200;2022-12-18T09:53:26;-5.40;1.00
296;DHT22;132;48.770;9.200;2022-12-18T09:56:17;-5.30;1.00
296;DHT22;132;48.770;9.200;2022-12-18T09:59:05;-5.30;1.00
296;DHT22;132;48.770;9.200;2022-12-18T10:01:51;-5.20;1.00
296;DHT22;132;48.770;9.200;2022-12-18T10:04:38;-5.10;1.00
296;DHT22;132;48.770;9.200;2022-12-18T10:10:47;-4.90;1.00
296;DHT22;132;48.770;9.200;2022-12-18T10:14:00;-4.80;1.00
296;DHT22;132;48.770;9.200;2022-12-18T10:17:28;-4.80;1.00
296;DHT22;132;48.770;9.200;2022-12-18T10:20:37;-4.70;1.00
296;DHT22;132;48.770;9.200;2022-12-18T10:27:30;-4.50;1.00
296;DHT22;132;48.770;9.200;2022-12-18T10:30:20;-4.60;1.00
296;DHT22;132;48.770;9.200;2022-12-18T10:33:19;-4.50;1.00
296;DHT22;132;48.770;9.200;2022-12-18T10:36:06;-4.50;1.00
296;DHT22;132;48.770;9.200;2022-12-18T10:38:53;-4.30;1.00
296;DHT22;132;48.770;9.200;2022-12-18T10:41:39;-4.40;1.00
296;DHT22;132;48.770;9.200;2022-12-18T10:44:26;-4.30;1.00
296;DHT22;132;48.770;9.200;2022-12-18T10:47:18;-4.40;1.00
296;DHT22;132;48.770;9.200;2022-12-18T10:50:10;-4.10;1.00
296;DHT22;132;48.770;9.200;2022-12-18T10:53:04;-4.00;1.00
296;DHT22;132;48.770;9.200;2022-12-18T10:55:54;-4.10;1.00
296;DHT22;132;48.770;9.200;2022-12-18T10:58:41;-3.90;1.00
296;DHT22;132;48.770;9.200;2022-12-18T11:04:50;-3.70;1.00
296;DHT22;132;48.770;9.200;2022-12-18T11:07:48;-3.60;1.00
296;DHT22;132;48.770;9.200;2022-12-18T11:10:37;-3.50;1.00
296;DHT22;132;48.770;9.200;2022-12-18T11:13:28;-2.90;1.00
296;DHT22;132;48.770;9.200;2022-12-18T11:16:20;-3.40;1.00
296;DHT22;132;48.770;9.200;2022-12-18T11:19:18;-3.40;1.00
296;DHT22;132;48.770;9.200;2022-12-18T11:22:30;-3.20;1.00
296;DHT22;132;48.770;9.200;2022-12-18T11:25:18;-3.20;1.00
296;DHT22;132;48.770;9.200;2022-12-18T11:28:27;-3.10;1.00
296;DHT22;132;48.770;9.200;2022-12-18T11:31:28;-3.10;1.00
296;DHT22;132;48.770;9.200;2022-12-18T11:34:28;-3.00;1.00
296;DHT22;132;48.770;9.200;2022-12-18T11:37:17;-1.00;1.00
296;DHT22;132;48.770;9.200;2022-12-18T11:40:35;-3.20;1.00
296;DHT22;132;48.770;9.200;2022-12-18T11:46:33;-2.80;1.00
296;DHT22;132;48.770;9.200;2022-12-18T11:49:32;-3.20;1.00
296;DHT22;132;48.770;9.200;2022-12-18T12:04:32;-2.70;1.00
296;DHT22;132;48.770;9.200;2022-12-18T12:07:28;-2.80;1.00
296;DHT22;132;48.770;9.200;2022-12-18T12:10:25;-2.90;1.00
296;DHT22;132;48.770;9.200;2022-12-18T12:17:05;-2.60;1.00
296;DHT22;132;48.770;9.200;2022-12-18T12:20:02;-2.70;1.00
296;DHT22;132;48.770;9.200;2022-12-18T12:23:00;-2.50;1.00
296;DHT22;132;48.770;9.200;2022-12-18T12:38:27;-2.50;1.00
296;DHT22;132;48.770;9.200;2022-12-18T12:41:17;-1.00;1.00
296;DHT22;132;48.770;9.200;2022-12-18T12:44:58;-2.20;1.00
296;DHT22;132;48.770;9.200;2022-12-18T12:47:50;-2.10;1.00
296;DHT22;132;48.770;9.200;2022-12-18T12:50:39;-2.40;1.00
296;DHT22;132;48.770;9.200;2022-12-18T12:53:31;-0.80;1.00
296;DHT22;132;48.770;9.200;2022-12-18T12:56:20;-2.10;1.00
296;DHT22;132;48.770;9.200;2022-12-18T12:59:18;-2.20;1.00
296;DHT22;132;48.770;9.200;2022-12-18T13:02:31;-1.90;1.00
296;DHT22;132;48.770;9.200;2022-12-18T13:05:30;-1.80;1.00
296;DHT22;132;48.770;9.200;2022-12-18T13:08:29;-1.80;1.00
296;DHT22;132;48.770;9.200;2022-12-18T13:11:32;-1.80;1.00
296;DHT22;132;48.770;9.200;2022-12-18T13:14:40;-1.80;1.00
296;DHT22;132;48.770;9.200;2022-12-18T13:17:29;-1.80;1.00
296;DHT22;132;48.770;9.200;2022-12-18T13:20:17;-1.70;1.00
296;DHT22;132;48.770;9.200;2022-12-18T13:29:05;-1.70;1.00
296;DHT22;132;48.770;9.200;2022-12-18T13:34:39;-1.90;1.00
296;DHT22;132;48.770;9.200;2022-12-18T13:43:55;-1.20;1.00
296;DHT22;132;48.770;9.200;2022-12-18T13:46:49;-1.30;1.00
296;DHT22;132;48.770;9.200;2022-12-18T13:49:41;-1.90;1.00
296;DHT22;132;48.770;9.200;2022-12-18T13:52:36;-1.40;1.00
296;DHT22;132;48.770;9.200;2022-12-18T13:55:26;-1.30;1.00
296;DHT22;132;48.770;9.200;2022-12-18T13:58:13;-1.30;1.00
296;DHT22;132;48.770;9.200;2022-12-18T14:01:00;-1.30;1.00
296;DHT22;132;48.770;9.200;2022-12-18T14:04:12;-1.30;1.00
296;DHT22;132;48.770;9.200;2022-12-18T14:07:10;-1.50;1.00
296;DHT22;132;48.770;9.200;2022-12-18T14:10:01;-1.40;1.00
296;DHT22;132;48.770;9.200;2022-12-18T14:12:50;-1.30;1.00
296;DHT22;132;48.770;9.200;2022-12-18T14:15:44;-0.30;1.00
296;DHT22;132;48.770;9.200;2022-12-18T14:21:28;-1.50;1.00
296;DHT22;132;48.770;9.200;2022-12-18T14:24:18;-1.50;1.00
296;DHT22;132;48.770;9.200;2022-12-18T14:27:23;-1.60;1.00
296;DHT22;132;48.770;9.200;2022-12-18T14:30:27;-1.60;1.00
296;DHT22;132;48.770;9.200;2022-12-18T14:33:15;-1.60;1.00
296;DHT22;132;48.770;9.200;2022-12-18T14:36:05;-1.80;1.00
296;DHT22;132;48.770;9.200;2022-12-18T14:38:53;-1.70;1.00
296;DHT22;132;48.770;9.200;2022-12-18T14:41:40;-1.80;1.00
296;DHT22;132;48.770;9.200;2022-12-18T14:44:27;-1.80;1.00
296;DHT22;132;48.770;9.200;2022-12-18T14:47:15;-1.10;1.00
296;DHT22;132;48.770;9.200;2022-12-18T14:50:02;-1.90;1.00
296;DHT22;132;48.770;9.200;2022-12-18T14:52:49;-2.00;1.00
296;DHT22;132;48.770;9.200;2022-12-18T14:55:36;-2.20;1.00
296;DHT22;132;48.770;9.200;2022-12-18T15:01:36;-2.10;1.00
296;DHT22;132;48.770;9.200;2022-12-18T15:04:27;-2.20;1.00
296;DHT22;132;48.770;9.200;2022-12-18T15:13:07;-2.30;1.00
296;DHT22;132;48.770;9.200;2022-12-18T15:15:57;-2.30;1.00
296;DHT22;132;48.770;9.200;2022-12-18T15:18:45;-2.50;1.00
296;DHT22;132;48.770;9.200;2022-12-18T15:21:34;-2.50;1.00
296;DHT22;132;48.770;9.200;2022-12-18T15:24:26;-2.60;1.00
296;DHT22;132;48.770;9.200;2022-12-18T15:27:33;-2.60;1.00
296;DHT22;132;48.770;9.200;2022-12-18T15:30:23;-2.60;1.00
296;DHT22;132;48.770;9.200;2022-12-18T15:33:24;-2.40;1.00
296;DHT22;132;48.770;9.200;2022-12-18T15:36:16;-2.70;1.00
296;DHT22;132;48.770;9.200;2022-12-18T15:39:03;-2.70;1.00
296;DHT22;132;48.770;9.200;2022-12-18T15:41:50;-2.90;1.00
296;DHT22;132;48.770;9.200;2022-12-18T15:44:55;-2.90;1.00
296;DHT22;132;48.770;9.200;2022-12-18T15:47:42;-2.90;1.00
296;DHT22;132;48.770;9.200;2022-12-18T15:50:28;-3.00;1.00
296;DHT22;132;48.770;9.200;2022-12-18T15:53:15;-2.90;1.00
296;DHT22;132;48.770;9.200;2022-12-18T15:56:02;-3.10;1.00
296;DHT22;132;48.770;9.200;2022-12-18T15:59:12;-3.10;1.00
296;DHT22;132;48.770;9.200;2022-12-18T16:02:00;-3.10;1.00
296;DHT22;132;48.770;9.200;2022-12-18T16:04:48;-3.10;1.00
296;DHT22;132;48.770;9.200;2022-12-18T16:07:35;-3.30;1.00
296;DHT22;132;48.770;9.200;2022-12-18T16:10:22;-3.20;1.00
296;DHT22;132;48.770;9.200;2022-12-18T16:13:12;-3.30;1.00
296;DHT22;132;48.770;9.200;2022-12-18T16:16:02;-3.20;1.00
296;DHT22;132;48.770;9.200;2022-12-18T16:18:48;-2.50;1.00
296;DHT22;132;48.770;9.200;2022-12-18T16:21:35;-3.20;1.00
296;DHT22;132;48.770;9.200;2022-12-18T16:24:24;-3.20;1.00
296;DHT22;132;48.770;9.200;2022-12-18T16:27:11;-3.30;1.00
296;DHT22;132;48.770;9.200;2022-12-18T16:29:58;-3.50;1.00
296;DHT22;132;48.770;9.200;2022-12-18T16:32:45;-3.30;1.00
296;DHT22;132;48.770;9.200;2022-12-18T16:35:32;-3.30;1.00
296;DHT22;132;48.770;9.200;2022-12-18T16:38:18;-3.30;1.00
296;DHT22;132;48.770;9.200;2022-12-18T16:41:18;-2.50;1.00
296;DHT22;132;48.770;9.200;2022-12-18T16:44:17;-3.30;1.00
296;DHT22;132;48.770;9.200;2022-12-18T16:47:04;-3.30;1.00
296;DHT22;132;48.770;9.200;2022-12-18T16:49:51;-3.30;1.00
296;DHT22;132;48.770;9.200;2022-12-18T16:52:39;-3.40;1.00
296;DHT22;132;48.770;9.200;2022-12-18T16:55:25;-3.40;1.00
296;DHT22;132;48.770;9.200;2022-12-18T16:58:12;-3.30;1.00
296;DHT22;132;48.770;9.200;2022-12-18T17:00:59;-3.30;1.00
296;DHT22;132;48.770;9.200;2022-12-18T17:04:05;-3.30;1.00
296;DHT22;132;48.770;9.200;2022-12-18T17:06:52;-3.10;1.00
296;DHT22;132;48.770;9.200;2022-12-18T17:09:39;-3.10;1.00
296;DHT22;132;48.770;9.200;2022-12-18T17:12:26;-3.20;1.00
296;DHT22;132;48.770;9.200;2022-12-18T17:15:13;-3.10;1.00
296;DHT22;132;48.770;9.200;2022-12-18T17:17:59;-3.10;1.00
296;DHT22;132;48.770;9.200;2022-12-18T17:20:46;-3.00;1.00
296;DHT22;132;48.770;9.200;2022-12-18T17:23:32;-2.90;1.00
296;DHT22;132;48.770;9.200;2022-12-18T17:26:19;-3.00;1.00
296;DHT22;132;48.770;9.200;2022-12-18T17:29:06;-2.90;1.00
296;DHT22;132;48.770;9.200;2022-12-18T17:31:53;-2.20;1.00
296;DHT22;132;48.770;9.200;2022-12-18T17:34:39;-2.80;1.00
296;DHT22;132;48.770;9.200;2022-12-18T17:37:26;-2.80;1.00
296;DHT22;132;48.770;9.200;2022-12-18T17:40:13;-2.70;1.00
296;DHT22;132;48.770;9.200;2022-12-18T17:42:59;-2.60;1.00
296;DHT22;132;48.770;9.200;2022-12-18T17:45:46;-2.90;1.00
296;DHT22;132;48.770;9.200;2022-12-18T17:48:33;-2.80;1.00
296;DHT22;132;48.770;9.200;2022-12-18T17:51:19;-2.70;1.00
296;DHT22;132;48.770;9.200;2022-12-18T17:54:06;-2.80;1.00
296;DHT22;132;48.770;9.200;2022-12-18T17:56:53;-2.70;1.00
296;DHT22;132;48.770;9.200;2022-12-18T17:59:40;-2.60;1.00
296;DHT22;132;48.770;9.200;2022-12-18T18:02:26;-2.70;1.00
296;DHT22;132;48.770;9.200;2022-12-18T18:05:13;-2.60;1.00
296;DHT22;132;48.770;9.200;2022-12-18T18:08:00;-2.50;1.00
296;DHT22;132;48.770;9.200;2022-12-18T18:10:47;-2.50;1.00
296;DHT22;132;48.770;9.200;2022-12-18T18:13:34;-2.50;1.00
296;DHT22;132;48.770;9.200;2022-12-18T18:16:42;-2.40;1.00
296;DHT22;132;48.770;9.200;2022-12-18T18:19:29;-2.50;1.00
296;DHT22;132;48.770;9.200;2022-12-18T18:22:15;-2.50;1.00
296;DHT22;132;48.770;9.200;2022-12-18T18:25:04;-2.50;1.00
296;DHT22;132;48.770;9.200;2022-12-18T18:27:51;-2.40;1.00
296;DHT22;132;48.770;9.200;2022-12-18T18:30:37;-2.40;1.00
296;DHT22;132;48.770;9.200;2022-12-18T18:33:24;-2.40;1.00
296;DHT22;132;48.770;9.200;2022-12-18T18:44:38;-2.20;1.00
296;DHT22;132;48.770;9.200;2022-12-18T18:47:30;-2.20;1.00
296;DHT22;132;48.770;9.200;2022-12-18T18:50:17;-2.20;1.00
296;DHT22;132;48.770;9.200;2022-12-18T18:53:07;-2.30;1.00
296;DHT22;132;48.770;9.200;2022-12-18T18:55:57;-2.30;1.00
296;DHT22;132;48.770;9.200;2022-12-18T19:03:08;-1.40;1.00
296;DHT22;132;48.770;9.200;2022-12-18T19:06:01;-2.20;1.00
296;DHT22;132;48.770;9.200;2022-12-18T19:08:49;-2.20;1.00
296;DHT22;132;48.770;9.200;2022-12-18T19:12:09;-2.20;1.00
296;DHT22;132;48.770;9.200;2022-12-18T19:15:53;-2.20;1.00
296;DHT22;132;48.770;9.200;2022-12-18T19:18:40;-2.60;1.00
296;DHT22;132;48.770;9.200;2022-12-18T19:21:27;-2.20;1.00
296;DHT22;132;48.770;9.200;2022-12-18T19:24:14;-2.30;1.00
296;DHT22;132;48.770;9.200;2022-12-18T19:27:01;-2.20;1.00
296;DHT22;132;48.770;9.200;2022-12-18T19:29:55;-2.90;1.00
296;DHT22;132;48.770;9.200;2022-12-18T19:33:19;-2.00;1.00
296;DHT22;132;48.770;9.200;2022-12-18T19:36:28;-2.00;1.00
296;DHT22;132;48.770;9.200;2022-12-18T19:43:57;-1.90;1.00
296;DHT22;132;48.770;9.200;2022-12-18T19:46:44;-2.30;1.00
296;DHT22;132;48.770;9.200;2022-12-18T19:50:20;-2.20;1.00
296;DHT22;132;48.770;9.200;2022-12-18T19:58:11;-1.90;1.00
296;DHT22;132;48.770;9.200;2022-12-18T20:01:46;-2.00;1.00
296;DHT22;132;48.770;9.200;2022-12-18T20:04:33;-2.20;1.00
296;DHT22;132;48.770;9.200;2022-12-18T20:07:19;-2.00;1.00
296;DHT22;132;48.770;9.200;2022-12-18T20:10:10;-2.00;1.00
296;DHT22;132;48.770;9.200;2022-12-18T20:13:03;-1.90;1.00
296;DHT22;132;48.770;9.200;2022-12-18T20:15:50;-1.80;1.00
296;DHT22;132;48.770;9.200;2022-12-18T20:18:38;-1.80;1.00
296;DHT22;132;48.770;9.200;2022-12-18T20:25:40;-1.60;1.00
296;DHT22;132;48.770;9.200;2022-12-18T20:28:27;-1.90;1.00
296;DHT22;132;48.770;9.200;2022-12-18T20:31:14;-1.80;1.00
296;DHT22;132;48.770;9.200;2022-12-18T21:34:24;-0.60;1.00
296;DHT22;132;48.770;9.200;2022-12-18T21:37:11;-1.40;1.00
296;DHT22;132;48.770;9.200;2022-12-18T21:39:58;-1.60;1.00
296;DHT22;132;48.770;9.200;2022-12-18T21:47:59;-1.30;1.00
296;DHT22;132;48.770;9.200;2022-12-18T21:50:45;-0.90;1.00
296;DHT22;132;48.770;9.200;2022-12-18T21:53:32;-1.30;1.00
296;DHT22;132;48.770;9.200;2022-12-18T22:01:43;-0.70;1.00
296;DHT22;132;48.770;9.200;2022-12-18T22:04:49;-1.30;1.00
296;DHT22;132;48.770;9.200;2022-12-18T22:07:36;-1.40;1.00
296;DHT22;132;48.770;9.200;2022-12-18T22:10:23;-1.50;1.00
296;DHT22;132;48.770;9.200;2022-12-18T22:13:16;-1.40;1.00
296;DHT22;132;48.770;9.200;2022-12-18T22:16:04;-1.50;1.00
296;DHT22;132;48.770;9.200;2022-12-18T22:18:55;-1.50;1.00
296;DHT22;132;48.770;9.200;2022-12-18T22:21:44;-1.40;1.00
296;DHT22;132;48.770;9.200;2022-12-18T22:24:32;-1.60;1.00
296;DHT22;132;48.770;9.200;2022-12-18T22:27:18;-1.40;1.00
296;DHT22;132;48.770;9.200;2022-12-18T22:30:05;-1.50;1.00
296;DHT22;132;48.770;9.200;2022-12-18T22:32:56;-1.60;1.00
296;DHT22;132;48.770;9.200;2022-12-18T22:35:43;-0.90;1.00
296;DHT22;132;48.770;9.200;2022-12-18T22:39:27;-1.90;1.00
296;DHT22;132;48.770;9.200;2022-12-18T22:42:14;-1.50;1.00
296;DHT22;132;48.770;9.200;2022-12-18T22:45:01;-1.50;1.00
296;DHT22;132;48.770;9.200;2022-12-18T22:47:47;-1.40;1.00
296;DHT22;132;48.770;9.200;2022-12-18T22:50:34;-1.40;1.00
296;DHT22;132;48.770;9.200;2022-12-18T22:53:21;-1.30;1.00
296;DHT22;132;48.770;9.200;2022-12-18T22:56:08;-1.30;1.00
296;DHT22;132;48.770;9.200;2022-12-18T22:58:54;-1.20;1.00
296;DHT22;132;48.770;9.200;2022-12-18T23:01:45;-1.10;1.00
296;DHT22;132;48.770;9.200;2022-12-18T23:04:32;-1.20;1.00
296;DHT22;132;48.770;9.200;2022-12-18T23:07:20;-1.20;1.00
296;DHT22;132;48.770;9.200;2022-12-18T23:10:08;-1.20;1.00
296;DHT22;132;48.770;9.200;2022-12-18T23:12:55;-1.20;1.00
296;DHT22;132;48.770;9.200;2022-12-18T23:15:41;-1.30;1.00
296;DHT22;132;48.770;9.200;2022-12-18T23:18:28;-1.10;1.00
296;DHT22;132;48.770;9.200;2022-12-18T23:21:17;-1.20;1.00
296;DHT22;132;48.770;9.200;2022-12-18T23:24:05;-1.20;1.00
296;DHT22;132;48.770;9.200;2022-12-18T23:26:52;-1.20;1.00
296;DHT22;132;48.770;9.200;2022-12-18T23:29:39;-1.20;1.00
296;DHT22;132;48.770;9.200;2022-12-18T23:32:25;-0.30;1.00
296;DHT22;132;48.770;9.200;2022-12-18T23:35:12;-1.20;1.00
296;DHT22;132;48.770;9.200;2022-12-18T23:37:59;-1.10;1.00
296;DHT22;132;48.770;9.200;2022-12-18T23:40:46;-1.20;1.00
296;DHT22;132;48.770;9.200;2022-12-18T23:43:33;-1.10;1.00
296;DHT22;132;48.770;9.200;2022-12-18T23:46:25;-1.10;1.00
296;DHT22;132;48.770;9.200;2022-12-18T23:49:12;-1.10;1.00
296;DHT22;132;48.770;9.200;2022-12-18T23:51:59;-0.90;1.00
296;DHT22;132;48.770;9.200;2022-12-18T23:54:48;-1.00;1.00
296;DHT22;132;48.770;9.200;2022-12-18T23:57:36;-1.00;1.00
